Time;durP1;ratioP1;P1;durP2;ratioP2;P2;SDS_P1;SDS_P2;PMS_P1;PMS_P2;Temp;Humidity;BMP_temperature;BMP_pressure;BME280_temperature;BME280_humidity;BME280_pressure;Samples;Min_cycle;Max_cycle;Signal;HPM_P1;HPM_P2
2021/03/04 00:01:28;;;;;;;91.43;40.03;;;;;;;;;;764652;183;620991;-63
2021/03/04 00:03:54;;;;;;;88.33;40.50;;;;;;;;;;767118;183;619465;-63
2021/03/04 00:06:20;;;;;;;102.32;44.83;;;;;;;;;;762537;183;627023;-63
2021/03/04 00:08:46;;;;;;;86.20;40.23;;;;;;;;;;762473;183;624511;-63
2021/03/04 00:11:12;;;;;;;105.20;43.50;;;;;;;;;;761670;183;620520;-64
2021/03/04 00:13:38;;;;;;;104.57;46.90;;;;;;;;;;751019;185;737648;-64
2021/03/04 00:16:04;;;;;;;109.50;47.10;;;;;;;;;;738529;189;754418;-64
2021/03/04 00:18:30;;;;;;;130.60;49.97;;;;;;;;;;725567;193;628742;-64
2021/03/04 00:20:55;;;;;;;122.53;50.30;;;;;;;;;;731768;190;608364;-64
2021/03/04 00:23:21;;;;;;;113.17;47.40;;;;;;;;;;756312;184;623555;-65
2021/03/04 00:25:47;;;;;;;124.27;51.70;;;;;;;;;;757903;184;624089;-68
2021/03/04 00:28:13;;;;;;;132.87;51.30;;;;;;;;;;751729;187;639114;-65
2021/03/04 00:30:39;;;;;;;135.23;49.80;;;;;;;;;;723142;193;617509;-65
2021/03/04 00:33:05;;;;;;;103.07;47.40;;;;;;;;;;759529;183;628004;-64
2021/03/04 00:35:30;;;;;;;120.60;50.23;;;;;;;;;;768463;183;629532;-65
2021/03/04 00:37:56;;;;;;;126.63;49.53;;;;;;;;;;765254;180;618724;-65
2021/03/04 00:40:22;;;;;;;125.57;48.33;;;;;;;;;;763904;183;631257;-65
2021/03/04 00:42:48;;;;;;;110.43;44.43;;;;;;;;;;764892;183;626072;-65
2021/03/04 00:45:14;;;;;;;117.00;44.30;;;;;;;;;;749351;188;633964;-65
2021/03/04 00:47:40;;;;;;;108.77;45.23;;;;;;;;;;727398;194;624898;-65
2021/03/04 00:50:06;;;;;;;130.37;47.63;;;;;;;;;;730293;188;636982;-64
2021/03/04 00:52:32;;;;;;;118.87;47.97;;;;;;;;;;733867;192;624636;-64
2021/03/04 00:54:58;;;;;;;115.70;48.73;;;;;;;;;;740190;188;618554;-66
2021/03/04 00:57:24;;;;;;;107.80;46.20;;;;;;;;;;743565;187;618415;-65
2021/03/04 00:59:50;;;;;;;128.13;48.40;;;;;;;;;;738448;190;620466;-65
2021/03/04 01:02:15;;;;;;;110.40;46.60;;;;;;;;;;734626;190;627970;-65
2021/03/04 01:04:41;;;;;;;114.43;47.40;;;;;;;;;;760595;183;614593;-65
2021/03/04 01:07:07;;;;;;;128.07;49.83;;;;;;;;;;762263;183;635001;-64
2021/03/04 01:09:33;;;;;;;119.37;50.80;;;;;;;;;;746526;187;616466;-65
2021/03/04 01:11:59;;;;;;;147.55;55.00;;;;;;;;;;765059;183;647068;-65
2021/03/04 01:14:25;;;;;;;153.47;57.67;;;;;;;;;;764194;183;640107;-64
2021/03/04 01:16:50;;;;;;;164.30;58.80;;;;;;;;;;751231;187;630067;-65
2021/03/04 01:19:16;;;;;;;143.03;53.27;;;;;;;;;;744030;187;617538;-65
2021/03/04 01:21:42;;;;;;;130.83;55.07;;;;;;;;;;762334;183;629139;-65
2021/03/04 01:24:08;;;;;;;126.80;49.50;;;;;;;;;;764814;180;616459;-65
2021/03/04 01:26:35;;;;;;;121.53;52.03;;;;;;;;;;758392;182;627790;-65
2021/03/04 01:29:00;;;;;;;135.20;52.50;;;;;;;;;;768797;183;625185;-65
2021/03/04 01:31:26;;;;;;;143.83;51.80;;;;;;;;;;753322;186;625266;-65
2021/03/04 01:33:51;;;;;;;127.83;49.43;;;;;;;;;;747138;187;625429;-65
2021/03/04 01:36:17;;;;;;;146.20;52.67;;;;;;;;;;760133;183;618650;-65
2021/03/04 01:38:43;;;;;;;166.37;54.83;;;;;;;;;;759332;183;630661;-64
2021/03/04 01:41:09;;;;;;;157.80;53.40;;;;;;;;;;765506;184;629908;-65
2021/03/04 01:43:35;;;;;;;176.02;62.03;;;;;;;;;;764022;181;635790;-64
2021/03/04 01:46:01;;;;;;;174.60;59.40;;;;;;;;;;762401;183;620886;-64
2021/03/04 01:48:27;;;;;;;132.50;54.10;;;;;;;;;;764301;183;623364;-65
2021/03/04 01:50:54;;;;;;;150.23;55.50;;;;;;;;;;759973;183;637457;-65
2021/03/04 01:53:20;;;;;;;140.00;50.10;;;;;;;;;;758400;183;625386;-65
2021/03/04 01:55:45;;;;;;;106.80;50.27;;;;;;;;;;754863;187;620309;-65
2021/03/04 01:58:11;;;;;;;134.18;51.17;;;;;;;;;;719469;194;630356;-64
2021/03/04 02:00:37;;;;;;;134.83;48.93;;;;;;;;;;730554;190;633276;-65
2021/03/04 02:03:03;;;;;;;119.60;48.10;;;;;;;;;;733180;190;624462;-65
2021/03/04 02:05:29;;;;;;;125.20;49.50;;;;;;;;;;763376;184;622734;-66
2021/03/04 02:08:11;;;;;;;137.80;50.97;;;;;;;;;;756462;183;615300;-65
2021/03/04 02:10:39;;;;;;;125.70;51.53;;;;;;;;;;764901;183;632878;-63
2021/03/04 02:13:06;;;;;;;119.03;49.40;;;;;;;;;;762886;183;625368;-63
2021/03/04 02:15:40;;;;;;;130.77;53.63;;;;;;;;;;748979;187;612837;-65
2021/03/04 02:18:06;;;;;;;129.70;54.73;;;;;;;;;;746322;184;630641;-64
2021/03/04 02:20:47;;;;;;;134.30;53.20;;;;;;;;;;736295;191;621369;-64
2021/03/04 02:23:17;;;;;;;114.97;50.10;;;;;;;;;;726505;190;619436;-65
2021/03/04 02:25:44;;;;;;;131.80;52.43;;;;;;;;;;754449;184;636379;-64
2021/03/04 02:28:09;;;;;;;118.33;46.13;;;;;;;;;;755523;185;616577;-65
2021/03/04 02:30:35;;;;;;;132.23;48.43;;;;;;;;;;756363;185;625923;-64
2021/03/04 02:33:02;;;;;;;145.27;50.00;;;;;;;;;;766521;183;629789;-65
2021/03/04 02:35:29;;;;;;;147.03;49.27;;;;;;;;;;752551;187;617611;-64
2021/03/04 02:37:56;;;;;;;110.53;49.40;;;;;;;;;;756759;183;629614;-65
2021/03/04 02:40:22;;;;;;;109.93;47.33;;;;;;;;;;734799;189;628100;-65
2021/03/04 02:42:48;;;;;;;108.20;48.03;;;;;;;;;;737745;188;652095;-66
2021/03/04 02:45:15;;;;;;;129.37;52.87;;;;;;;;;;750201;187;631911;-65
2021/03/04 02:47:40;;;;;;;127.43;47.70;;;;;;;;;;744854;186;630570;-64
2021/03/04 02:50:07;;;;;;;129.50;49.80;;;;;;;;;;734046;190;631507;-63
2021/03/04 02:52:32;;;;;;;167.10;54.87;;;;;;;;;;750104;187;638733;-64
2021/03/04 02:54:58;;;;;;;158.40;56.57;;;;;;;;;;735383;190;631682;-64
2021/03/04 02:57:24;;;;;;;148.07;57.27;;;;;;;;;;735740;188;623966;-65
2021/03/04 02:59:50;;;;;;;167.67;60.70;;;;;;;;;;741075;188;629366;-64
2021/03/04 03:02:16;;;;;;;166.27;60.07;;;;;;;;;;749966;183;625519;-64
2021/03/04 03:04:42;;;;;;;194.23;62.23;;;;;;;;;;749171;187;624488;-64
2021/03/04 03:07:07;;;;;;;166.67;62.87;;;;;;;;;;762017;180;637493;-65
2021/03/04 03:09:33;;;;;;;171.03;63.00;;;;;;;;;;763927;183;610310;-65
2021/03/04 03:11:59;;;;;;;163.43;58.70;;;;;;;;;;767716;183;625192;-63
2021/03/04 03:14:25;;;;;;;161.60;57.90;;;;;;;;;;763083;183;627511;-63
2021/03/04 03:16:51;;;;;;;163.30;57.40;;;;;;;;;;747959;188;632944;-64
2021/03/04 03:19:17;;;;;;;142.53;55.37;;;;;;;;;;726252;194;618918;-64
2021/03/04 03:21:43;;;;;;;160.87;58.33;;;;;;;;;;756445;180;626869;-62
2021/03/04 03:24:08;;;;;;;166.07;60.20;;;;;;;;;;763145;182;617586;-64
2021/03/04 03:26:36;;;;;;;132.23;54.00;;;;;;;;;;758805;182;618512;-64
2021/03/04 03:29:00;;;;;;;143.73;57.77;;;;;;;;;;759943;180;630595;-64
2021/03/04 03:31:26;;;;;;;163.73;60.07;;;;;;;;;;756385;180;634429;-64
2021/03/04 03:33:52;;;;;;;160.50;57.23;;;;;;;;;;761939;181;652620;-64
2021/03/04 03:36:18;;;;;;;140.77;57.10;;;;;;;;;;760367;180;631188;-64
2021/03/04 03:38:43;;;;;;;147.20;55.33;;;;;;;;;;759149;180;628749;-64
2021/03/04 03:41:09;;;;;;;139.30;53.77;;;;;;;;;;767906;183;630997;-64
2021/03/04 03:43:35;;;;;;;133.10;53.20;;;;;;;;;;763603;180;633909;-62
2021/03/04 03:46:01;;;;;;;136.47;52.80;;;;;;;;;;762319;183;645185;-65
2021/03/04 03:48:27;;;;;;;125.87;50.50;;;;;;;;;;750150;185;625910;-63
2021/03/04 03:50:53;;;;;;;146.70;56.63;;;;;;;;;;747891;187;619074;-64
2021/03/04 03:53:19;;;;;;;156.50;57.13;;;;;;;;;;733580;189;642961;-64
2021/03/04 03:55:45;;;;;;;165.17;61.77;;;;;;;;;;765545;181;631683;-64
2021/03/04 03:58:11;;;;;;;184.27;59.70;;;;;;;;;;763342;181;647580;-64
2021/03/04 04:00:37;;;;;;;154.10;58.50;;;;;;;;;;761233;183;618719;-65
2021/03/04 04:03:03;;;;;;;147.13;57.77;;;;;;;;;;759530;182;618727;-62
2021/03/04 04:05:29;;;;;;;147.67;55.47;;;;;;;;;;772058;180;630723;-64
2021/03/04 04:07:54;;;;;;;143.53;60.87;;;;;;;;;;766477;183;624104;-64
2021/03/04 04:10:20;;;;;;;147.30;55.97;;;;;;;;;;761400;182;635423;-64
2021/03/04 04:12:46;;;;;;;154.47;60.20;;;;;;;;;;749684;187;625472;-64
2021/03/04 04:15:12;;;;;;;155.27;58.77;;;;;;;;;;753662;185;639880;-64
2021/03/04 04:17:38;;;;;;;145.63;56.27;;;;;;;;;;762234;183;626293;-65
2021/03/04 04:20:04;;;;;;;142.50;53.17;;;;;;;;;;766895;183;626295;-65
2021/03/04 04:22:30;;;;;;;128.87;53.00;;;;;;;;;;764366;183;625543;-64
2021/03/04 04:24:56;;;;;;;147.97;53.30;;;;;;;;;;767308;183;621933;-64
2021/03/04 04:27:22;;;;;;;145.57;56.47;;;;;;;;;;750448;187;635058;-65
2021/03/04 04:29:48;;;;;;;155.10;57.47;;;;;;;;;;741174;188;628297;-64
2021/03/04 04:32:13;;;;;;;114.43;50.70;;;;;;;;;;732520;191;630548;-64
2021/03/04 04:34:39;;;;;;;152.03;55.07;;;;;;;;;;742607;187;656148;-63
2021/03/04 04:37:05;;;;;;;134.13;55.43;;;;;;;;;;754906;187;617948;-65
2021/03/04 04:39:31;;;;;;;135.27;55.10;;;;;;;;;;763364;183;636933;-64
2021/03/04 04:41:57;;;;;;;146.97;56.47;;;;;;;;;;763231;183;628443;-64
2021/03/04 04:44:23;;;;;;;156.17;55.53;;;;;;;;;;767780;183;617784;-64
2021/03/04 04:46:48;;;;;;;142.53;56.60;;;;;;;;;;757222;183;618810;-64
2021/03/04 04:49:14;;;;;;;148.57;56.97;;;;;;;;;;763117;183;635420;-64
2021/03/04 04:51:40;;;;;;;137.60;55.27;;;;;;;;;;750289;187;639416;-63
2021/03/04 04:54:06;;;;;;;149.83;57.47;;;;;;;;;;741641;187;627760;-63
2021/03/04 04:56:32;;;;;;;175.33;61.43;;;;;;;;;;733063;191;622123;-65
2021/03/04 04:58:58;;;;;;;162.17;58.50;;;;;;;;;;738284;188;633567;-63
2021/03/04 05:01:24;;;;;;;151.47;56.80;;;;;;;;;;736154;190;627309;-65
2021/03/04 05:03:49;;;;;;;154.43;60.67;;;;;;;;;;735566;189;634624;-64
2021/03/04 05:06:15;;;;;;;148.60;62.07;;;;;;;;;;737583;187;619211;-63
2021/03/04 05:08:41;;;;;;;150.77;59.83;;;;;;;;;;767289;183;656257;-65
2021/03/04 05:11:07;;;;;;;177.55;59.85;;;;;;;;;;763189;183;846257;-65
2021/03/04 05:13:33;;;;;;;168.93;62.03;;;;;;;;;;765322;183;624871;-65
2021/03/04 05:15:59;;;;;;;166.30;66.93;;;;;;;;;;748491;186;638462;-66
2021/03/04 05:18:25;;;;;;;179.43;64.90;;;;;;;;;;746513;187;625511;-66
2021/03/04 05:20:51;;;;;;;188.03;64.30;;;;;;;;;;733720;191;618862;-67
2021/03/04 05:23:16;;;;;;;150.70;59.97;;;;;;;;;;749410;188;616661;-67
2021/03/04 05:25:42;;;;;;;189.07;66.07;;;;;;;;;;736218;190;639876;-67
2021/03/04 05:28:08;;;;;;;174.97;65.53;;;;;;;;;;755493;184;624504;-67
2021/03/04 05:30:34;;;;;;;152.80;64.17;;;;;;;;;;750723;185;620812;-67
2021/03/04 05:33:00;;;;;;;160.03;63.37;;;;;;;;;;755424;185;615381;-66
2021/03/04 05:35:25;;;;;;;149.53;61.13;;;;;;;;;;729737;194;624759;-65
2021/03/04 05:37:51;;;;;;;151.33;62.63;;;;;;;;;;729575;188;635706;-66
2021/03/04 05:40:17;;;;;;;164.77;61.77;;;;;;;;;;747646;188;617654;-67
2021/03/04 05:42:43;;;;;;;164.00;59.17;;;;;;;;;;730968;188;623931;-66
2021/03/04 05:45:10;;;;;;;150.07;62.03;;;;;;;;;;735716;188;613496;-69
2021/03/04 05:47:36;;;;;;;158.70;62.43;;;;;;;;;;745606;188;618817;-67
2021/03/04 05:50:02;;;;;;;167.50;61.97;;;;;;;;;;761480;180;616221;-67
2021/03/04 05:52:28;;;;;;;170.93;58.67;;;;;;;;;;759939;183;632753;-67
2021/03/04 05:54:54;;;;;;;171.40;62.10;;;;;;;;;;762159;183;616524;-66
2021/03/04 05:57:20;;;;;;;161.70;61.70;;;;;;;;;;764438;180;636170;-67
2021/03/04 05:59:46;;;;;;;178.80;64.83;;;;;;;;;;766761;183;624755;-65
2021/03/04 06:02:11;;;;;;;176.57;66.63;;;;;;;;;;764690;183;630833;-67
2021/03/04 06:04:37;;;;;;;182.97;65.30;;;;;;;;;;750975;187;618490;-66
2021/03/04 06:07:03;;;;;;;162.93;64.67;;;;;;;;;;753149;183;627880;-66
2021/03/04 06:09:29;;;;;;;175.10;64.40;;;;;;;;;;764912;183;618147;-65
2021/03/04 06:12:00;;;;;;;168.23;61.80;;;;;;;;;;762078;183;619395;-67
2021/03/04 06:14:26;;;;;;;165.03;64.57;;;;;;;;;;767293;180;625719;-66
2021/03/04 06:16:52;;;;;;;177.83;66.43;;;;;;;;;;765727;183;629307;-66
2021/03/04 06:19:19;;;;;;;155.40;61.97;;;;;;;;;;766362;182;626380;-65
2021/03/04 06:21:44;;;;;;;166.80;64.37;;;;;;;;;;755135;187;632175;-64
2021/03/04 06:24:11;;;;;;;172.82;65.60;;;;;;;;;;725675;193;630442;-65
2021/03/04 06:26:37;;;;;;;166.60;69.00;;;;;;;;;;735307;190;618943;-64
2021/03/04 06:29:08;;;;;;;154.33;63.13;;;;;;;;;;753038;186;625982;-66
2021/03/04 06:31:34;;;;;;;184.07;64.97;;;;;;;;;;765775;183;617975;-64
2021/03/04 06:34:00;;;;;;;205.47;73.60;;;;;;;;;;764492;183;626948;-63
2021/03/04 06:36:26;;;;;;;215.57;77.73;;;;;;;;;;764319;183;625561;-65
2021/03/04 06:38:53;;;;;;;220.10;77.50;;;;;;;;;;751658;187;628248;-65
2021/03/04 06:41:18;;;;;;;198.13;67.17;;;;;;;;;;725752;194;628202;-64
2021/03/04 06:43:44;;;;;;;182.43;62.90;;;;;;;;;;729458;190;626152;-63
2021/03/04 06:46:10;;;;;;;152.40;62.47;;;;;;;;;;763399;183;616430;-64
2021/03/04 06:48:36;;;;;;;163.30;65.57;;;;;;;;;;763342;183;626203;-64
2021/03/04 06:51:04;;;;;;;183.77;64.77;;;;;;;;;;765863;183;626775;-64
2021/03/04 06:53:30;;;;;;;191.70;65.60;;;;;;;;;;748520;187;624969;-65
2021/03/04 06:55:56;;;;;;;171.47;65.17;;;;;;;;;;765945;183;664991;-64
2021/03/04 06:58:22;;;;;;;164.37;66.57;;;;;;;;;;762185;183;640741;-65
2021/03/04 07:00:48;;;;;;;187.50;69.83;;;;;;;;;;763250;183;629830;-63
2021/03/04 07:03:14;;;;;;;177.17;70.10;;;;;;;;;;753481;187;627988;-65
2021/03/04 07:05:40;;;;;;;180.27;69.77;;;;;;;;;;765047;183;627864;-65
2021/03/04 07:08:06;;;;;;;188.00;67.60;;;;;;;;;;764586;183;627338;-65
2021/03/04 07:10:32;;;;;;;172.03;69.80;;;;;;;;;;754703;187;627508;-65
2021/03/04 07:12:57;;;;;;;155.27;66.43;;;;;;;;;;754995;185;622813;-64
2021/03/04 07:15:23;;;;;;;165.37;64.87;;;;;;;;;;759719;183;617156;-65
2021/03/04 07:17:49;;;;;;;164.93;66.17;;;;;;;;;;754059;187;619467;-65
2021/03/04 07:20:15;;;;;;;157.07;66.70;;;;;;;;;;766959;183;640646;-64
2021/03/04 07:22:44;;;;;;;161.30;61.33;;;;;;;;;;766391;183;619592;-65
2021/03/04 07:25:10;;;;;;;153.20;56.00;;;;;;;;;;764823;182;631972;-65
2021/03/04 07:27:36;;;;;;;157.23;68.43;;;;;;;;;;770118;182;619158;-65
2021/03/04 07:30:02;;;;;;;146.90;59.97;;;;;;;;;;765871;183;623787;-66
2021/03/04 07:32:28;;;;;;;133.13;54.23;;;;;;;;;;764161;183;617706;-66
2021/03/04 07:34:54;;;;;;;133.55;53.85;;;;;;;;;;753967;186;634298;-66
2021/03/04 07:37:20;;;;;;;142.93;58.03;;;;;;;;;;756091;184;622163;-64
2021/03/04 07:39:47;;;;;;;147.37;62.87;;;;;;;;;;735623;189;618161;-65
2021/03/04 07:42:15;;;;;;;156.17;60.23;;;;;;;;;;736557;188;618323;-65
2021/03/04 07:44:41;;;;;;;148.37;61.97;;;;;;;;;;743312;188;633000;-65
2021/03/04 07:47:07;;;;;;;171.17;64.40;;;;;;;;;;766816;183;623900;-65
2021/03/04 07:49:33;;;;;;;171.87;68.00;;;;;;;;;;764046;183;637413;-65
2021/03/04 07:51:59;;;;;;;151.07;64.60;;;;;;;;;;755948;187;613344;-65
2021/03/04 07:54:27;;;;;;;175.50;69.17;;;;;;;;;;725205;194;628507;-64
2021/03/04 07:56:59;;;;;;;159.83;67.97;;;;;;;;;;757905;180;632969;-64
2021/03/04 07:59:25;;;;;;;144.73;62.17;;;;;;;;;;757593;183;634348;-65
2021/03/04 08:01:55;;;;;;;152.27;63.53;;;;;;;;;;763007;183;633116;-65
2021/03/04 08:04:21;;;;;;;140.23;59.23;;;;;;;;;;759796;183;628490;-63
2021/03/04 08:06:50;;;;;;;151.93;64.13;;;;;;;;;;762309;180;623654;-64
2021/03/04 08:09:21;;;;;;;123.83;51.10;;;;;;;;;;760087;180;639494;-62
2021/03/04 08:11:47;;;;;;;150.73;64.10;;;;;;;;;;756966;183;633770;-63
2021/03/04 08:14:13;;;;;;;132.37;53.23;;;;;;;;;;764765;183;628267;-64
2021/03/04 08:16:39;;;;;;;144.30;57.97;;;;;;;;;;766496;182;639379;-64
2021/03/04 08:19:05;;;;;;;125.40;56.60;;;;;;;;;;753515;187;624116;-64
2021/03/04 08:21:30;;;;;;;124.43;56.77;;;;;;;;;;754991;185;627576;-64
2021/03/04 08:23:56;;;;;;;120.17;55.37;;;;;;;;;;754188;185;631092;-63
2021/03/04 08:26:22;;;;;;;120.60;56.97;;;;;;;;;;753776;187;629521;-63
2021/03/04 08:28:48;;;;;;;120.33;53.60;;;;;;;;;;747842;188;642920;-64
2021/03/04 08:31:14;;;;;;;125.03;58.30;;;;;;;;;;737487;190;630877;-64
2021/03/04 08:33:40;;;;;;;131.73;56.27;;;;;;;;;;735363;190;626036;-63
2021/03/04 08:36:06;;;;;;;125.90;54.80;;;;;;;;;;753014;185;616904;-63
2021/03/04 08:38:37;;;;;;;144.73;58.13;;;;;;;;;;762521;180;629718;-64
2021/03/04 08:41:03;;;;;;;116.23;55.40;;;;;;;;;;759584;183;752781;-63
2021/03/04 08:43:29;;;;;;;135.40;57.20;;;;;;;;;;765607;183;623807;-63
2021/03/04 08:45:56;;;;;;;116.90;51.93;;;;;;;;;;761143;182;626385;-63
2021/03/04 08:48:22;;;;;;;106.17;54.00;;;;;;;;;;760223;180;621881;-63
2021/03/04 08:50:48;;;;;;;96.30;50.23;;;;;;;;;;760601;180;628756;-65
2021/03/04 08:53:14;;;;;;;110.00;50.77;;;;;;;;;;771307;180;627163;-65
2021/03/04 08:55:43;;;;;;;132.23;55.20;;;;;;;;;;765553;183;627654;-63
2021/03/04 08:58:09;;;;;;;100.90;51.03;;;;;;;;;;761602;183;621283;-63
2021/03/04 09:00:35;;;;;;;117.60;54.10;;;;;;;;;;749562;187;631774;-63
2021/03/04 09:03:06;;;;;;;101.17;51.37;;;;;;;;;;765161;183;644431;-63
2021/03/04 09:05:31;;;;;;;120.37;52.00;;;;;;;;;;768407;183;623418;-63
2021/03/04 09:07:57;;;;;;;115.10;53.00;;;;;;;;;;761069;183;634397;-63
2021/03/04 09:10:23;;;;;;;109.80;50.50;;;;;;;;;;751657;187;640096;-63
2021/03/04 09:12:49;;;;;;;113.57;51.50;;;;;;;;;;753000;185;626198;-63
2021/03/04 09:15:17;;;;;;;119.03;53.77;;;;;;;;;;734337;189;633523;-63
2021/03/04 09:17:42;;;;;;;112.77;51.17;;;;;;;;;;749282;188;644332;-63
2021/03/04 09:20:09;;;;;;;117.23;50.93;;;;;;;;;;754712;185;630309;-62
2021/03/04 09:22:35;;;;;;;104.63;45.40;;;;;;;;;;750842;184;661716;-64
2021/03/04 09:25:00;;;;;;;112.30;56.13;;;;;;;;;;753633;187;631607;-64
2021/03/04 09:27:26;;;;;;;109.43;51.90;;;;;;;;;;721623;194;624806;-62
2021/03/04 09:29:52;;;;;;;117.10;52.60;;;;;;;;;;757947;183;619546;-66
2021/03/04 09:32:18;;;;;;;94.37;48.90;;;;;;;;;;760121;183;634725;-63
2021/03/04 09:34:44;;;;;;;105.43;50.10;;;;;;;;;;765745;183;610518;-63
2021/03/04 09:37:10;;;;;;;110.68;50.65;;;;;;;;;;763482;183;626758;-63
2021/03/04 09:39:36;;;;;;;106.03;50.67;;;;;;;;;;760621;182;624220;-62
2021/03/04 09:42:02;;;;;;;110.57;50.77;;;;;;;;;;763282;183;629453;-64
2021/03/04 09:44:29;;;;;;;107.97;49.87;;;;;;;;;;765505;183;623981;-65
2021/03/04 09:46:54;;;;;;;107.03;52.40;;;;;;;;;;766539;182;708018;-63
2021/03/04 09:49:21;;;;;;;112.87;50.07;;;;;;;;;;755973;187;618724;-63
2021/03/04 09:51:46;;;;;;;107.27;52.67;;;;;;;;;;757582;185;641406;-63
2021/03/04 09:54:12;;;;;;;97.70;48.30;;;;;;;;;;765163;183;656372;-64
2021/03/04 09:56:38;;;;;;;103.80;50.23;;;;;;;;;;762194;183;632044;-62
2021/03/04 09:59:04;;;;;;;97.43;50.10;;;;;;;;;;747843;185;623590;-63
2021/03/04 10:01:30;;;;;;;128.90;58.33;;;;;;;;;;723027;193;958043;-63
2021/03/04 10:04:00;;;;;;;98.97;49.10;;;;;;;;;;756939;183;632828;-64
2021/03/04 10:06:26;;;;;;;98.93;47.30;;;;;;;;;;763440;180;640200;-63
2021/03/04 10:08:52;;;;;;;92.37;43.20;;;;;;;;;;760902;183;626049;-63
2021/03/04 10:11:21;;;;;;;86.77;41.67;;;;;;;;;;760761;183;626156;-63
2021/03/04 10:13:46;;;;;;;85.83;43.50;;;;;;;;;;760604;180;619828;-63
2021/03/04 10:16:12;;;;;;;80.23;43.47;;;;;;;;;;754820;183;640367;-63
2021/03/04 10:18:38;;;;;;;80.53;39.77;;;;;;;;;;768517;183;625840;-63
2021/03/04 10:21:04;;;;;;;96.83;40.83;;;;;;;;;;765013;183;618874;-63
2021/03/04 10:23:31;;;;;;;87.57;43.27;;;;;;;;;;767547;183;635703;-63
2021/03/04 10:25:56;;;;;;;81.13;40.73;;;;;;;;;;764339;183;629627;-62
2021/03/04 10:28:21;;;;;;;63.27;32.70;;;;;;;;;;761743;183;630623;-63
2021/03/04 10:30:47;;;;;;;86.10;44.20;;;;;;;;;;765641;183;668072;-65
2021/03/04 10:33:13;;;;;;;87.10;40.80;;;;;;;;;;763444;180;620679;-63
2021/03/04 10:35:39;;;;;;;84.90;46.17;;;;;;;;;;763878;183;627318;-63
2021/03/04 10:38:05;;;;;;;102.47;44.17;;;;;;;;;;768370;184;653253;-63
2021/03/04 10:40:31;;;;;;;88.73;45.60;;;;;;;;;;759176;183;636344;-63
2021/03/04 10:42:57;;;;;;;94.00;46.60;;;;;;;;;;764924;183;660002;-63
2021/03/04 10:45:23;;;;;;;87.50;43.17;;;;;;;;;;756687;183;638813;-63
2021/03/04 10:47:48;;;;;;;98.37;46.30;;;;;;;;;;765361;183;614681;-62
2021/03/04 10:50:15;;;;;;;95.17;50.20;;;;;;;;;;763614;184;636149;-63
2021/03/04 10:52:41;;;;;;;103.10;49.90;;;;;;;;;;759970;183;706041;-63
2021/03/04 10:55:08;;;;;;;98.57;49.80;;;;;;;;;;753277;187;613294;-63
2021/03/04 10:57:33;;;;;;;98.40;47.13;;;;;;;;;;746063;184;667112;-63
2021/03/04 10:59:59;;;;;;;95.57;50.17;;;;;;;;;;761851;182;640504;-63
2021/03/04 11:02:25;;;;;;;91.43;46.00;;;;;;;;;;760071;183;622474;-64
2021/03/04 11:04:52;;;;;;;85.47;47.47;;;;;;;;;;764757;183;625857;-65
2021/03/04 11:07:18;;;;;;;97.87;48.63;;;;;;;;;;760793;180;685584;-63
2021/03/04 11:09:44;;;;;;;92.10;45.97;;;;;;;;;;761410;183;631740;-63
2021/03/04 11:12:09;;;;;;;98.67;47.43;;;;;;;;;;760091;183;623589;-63
2021/03/04 11:14:35;;;;;;;85.17;46.13;;;;;;;;;;763961;183;635878;-63
2021/03/04 11:17:01;;;;;;;96.53;49.70;;;;;;;;;;759048;183;628041;-63
2021/03/04 11:19:27;;;;;;;96.03;48.10;;;;;;;;;;767821;183;625622;-62
2021/03/04 11:21:53;;;;;;;81.67;45.10;;;;;;;;;;763473;183;618767;-63
2021/03/04 11:24:19;;;;;;;83.13;47.57;;;;;;;;;;762951;183;632791;-63
2021/03/04 11:26:44;;;;;;;79.07;43.53;;;;;;;;;;767790;183;619105;-63
2021/03/04 11:29:10;;;;;;;96.33;50.30;;;;;;;;;;763696;183;628273;-64
2021/03/04 11:31:36;;;;;;;88.47;44.30;;;;;;;;;;762362;180;635347;-63
2021/03/04 11:34:03;;;;;;;96.95;47.78;;;;;;;;;;765006;183;620733;-63
2021/03/04 11:36:29;;;;;;;99.63;49.10;;;;;;;;;;770787;182;634555;-63
2021/03/04 11:38:54;;;;;;;90.20;47.00;;;;;;;;;;761025;183;622159;-63
2021/03/04 11:41:20;;;;;;;89.40;46.17;;;;;;;;;;761991;183;613651;-63
2021/03/04 11:43:46;;;;;;;83.40;45.30;;;;;;;;;;768013;183;626594;-64
2021/03/04 11:46:12;;;;;;;97.10;46.50;;;;;;;;;;767716;183;627728;-63
2021/03/04 11:48:38;;;;;;;90.77;45.73;;;;;;;;;;761113;183;631330;-64
2021/03/04 11:51:04;;;;;;;90.03;48.50;;;;;;;;;;766675;183;899348;-63
2021/03/04 11:53:29;;;;;;;86.67;45.67;;;;;;;;;;763926;183;628329;-64
2021/03/04 11:55:55;;;;;;;100.87;49.00;;;;;;;;;;763285;183;637154;-63
2021/03/04 11:58:21;;;;;;;91.73;48.00;;;;;;;;;;766879;182;613325;-63
2021/03/04 12:00:47;;;;;;;94.17;46.23;;;;;;;;;;761604;183;636269;-63
2021/03/04 12:03:13;;;;;;;99.03;48.57;;;;;;;;;;763086;183;622483;-64
2021/03/04 12:05:39;;;;;;;97.90;47.67;;;;;;;;;;761999;183;623946;-63
2021/03/04 12:08:05;;;;;;;103.83;49.03;;;;;;;;;;763971;183;627525;-63
2021/03/04 12:10:31;;;;;;;97.17;52.60;;;;;;;;;;764031;182;644065;-63
2021/03/04 12:12:56;;;;;;;104.22;48.90;;;;;;;;;;761461;183;623727;-63
2021/03/04 12:15:23;;;;;;;92.50;47.87;;;;;;;;;;751720;187;626519;-63
2021/03/04 12:17:48;;;;;;;96.90;48.33;;;;;;;;;;756338;184;639100;-63
2021/03/04 12:20:14;;;;;;;101.80;53.10;;;;;;;;;;762982;183;650596;-64
2021/03/04 12:22:40;;;;;;;102.13;49.00;;;;;;;;;;766556;183;630893;-65
2021/03/04 12:25:06;;;;;;;94.10;50.30;;;;;;;;;;760823;183;630792;-64
2021/03/04 12:27:32;;;;;;;103.63;52.87;;;;;;;;;;762091;183;870733;-65
2021/03/04 12:29:59;;;;;;;86.87;46.55;;;;;;;;;;765701;183;623890;-63
2021/03/04 12:32:24;;;;;;;91.30;47.93;;;;;;;;;;772229;181;648808;-63
2021/03/04 12:34:50;;;;;;;106.13;54.13;;;;;;;;;;763933;183;618469;-63
2021/03/04 12:37:16;;;;;;;106.93;51.30;;;;;;;;;;765984;183;629803;-66
2021/03/04 12:39:42;;;;;;;105.47;50.93;;;;;;;;;;751304;187;636865;-64
2021/03/04 12:42:08;;;;;;;92.60;50.73;;;;;;;;;;755100;184;649422;-66
2021/03/04 12:44:34;;;;;;;107.30;51.63;;;;;;;;;;731373;190;627565;-64
2021/03/04 12:47:00;;;;;;;107.90;50.67;;;;;;;;;;747390;187;618472;-64
2021/03/04 12:49:26;;;;;;;110.60;57.20;;;;;;;;;;725521;194;626712;-64
2021/03/04 12:51:52;;;;;;;103.40;54.87;;;;;;;;;;752698;184;679362;-65
2021/03/04 12:54:18;;;;;;;106.40;54.23;;;;;;;;;;762333;183;623642;-65
2021/03/04 12:56:44;;;;;;;99.93;55.20;;;;;;;;;;760918;180;633913;-65
2021/03/04 12:59:10;;;;;;;110.00;55.57;;;;;;;;;;761602;183;618922;-64
2021/03/04 13:01:35;;;;;;;97.60;53.50;;;;;;;;;;766481;183;618517;-65
2021/03/04 13:04:01;;;;;;;128.97;57.97;;;;;;;;;;769176;180;614713;-65
2021/03/04 13:06:27;;;;;;;120.57;59.10;;;;;;;;;;764480;183;618573;-64
2021/03/04 13:08:53;;;;;;;117.07;57.63;;;;;;;;;;762790;182;638665;-65
2021/03/04 13:11:19;;;;;;;113.97;52.87;;;;;;;;;;749728;187;630499;-64
2021/03/04 13:13:44;;;;;;;105.23;51.70;;;;;;;;;;755821;185;634581;-65
2021/03/04 13:16:10;;;;;;;117.03;54.70;;;;;;;;;;731383;190;627904;-65
2021/03/04 13:18:36;;;;;;;117.90;55.37;;;;;;;;;;749680;187;633392;-66
2021/03/04 13:21:02;;;;;;;123.57;57.90;;;;;;;;;;755215;184;633652;-65
2021/03/04 13:23:28;;;;;;;114.33;56.60;;;;;;;;;;756930;183;647260;-65
2021/03/04 13:25:54;;;;;;;111.97;56.57;;;;;;;;;;758414;185;618434;-66
2021/03/04 13:28:20;;;;;;;104.60;53.10;;;;;;;;;;764277;183;628475;-65
2021/03/04 13:30:45;;;;;;;103.15;54.30;;;;;;;;;;762408;183;624547;-65
2021/03/04 13:33:11;;;;;;;119.70;56.60;;;;;;;;;;764761;183;633180;-65
2021/03/04 13:35:37;;;;;;;109.90;50.97;;;;;;;;;;768374;183;635289;-65
2021/03/04 13:38:03;;;;;;;110.20;52.57;;;;;;;;;;761399;183;623522;-65
2021/03/04 13:40:29;;;;;;;128.27;54.83;;;;;;;;;;765392;183;638015;-65
2021/03/04 13:42:55;;;;;;;115.97;58.33;;;;;;;;;;751869;187;633062;-65
2021/03/04 13:45:21;;;;;;;137.15;63.67;;;;;;;;;;726617;193;620144;-68
2021/03/04 13:47:46;;;;;;;135.23;64.87;;;;;;;;;;760926;183;618781;-65